Terminal Aerodrome Forecast
Issued by NWS

Home | Current Version | Previous Version | Text Only | Print | Product List | Glossary Off
Versions: 1 2 3 4 5 6 7 8 9 10 11 12 13 14 15

000
FTUS43 KMPX 201433 AAA
TAFRWF
TAF AMD
KRWF 201433Z 2015/2112 06009G17KT 2SM RA BR OVC011
     FM201700 06011G20KT 2SM RA BR OVC008
     FM210300 02006KT 4SM -DZ BR OVC005
     FM211000 29010KT P6SM OVC008=

USA.gov is the U.S. government's official web portal to all federal, state and local government web resources and services.